Weather reports worldwide

Advertisment
Vieste, Italy (16266): temperature & dewpoint: 15.05.2019 16:00:00 - 21.05.2019 16:00:00 (CEST)Vieste, Italy (16266): wind speed: 15.05.2019 16:00:00 - 21.05.2019 16:00:00 (CEST)Vieste, Italy (16266): wind direction: 15.05.2019 16:00:00 - 21.05.2019 16:00:00 (CEST)Vieste, Italy (16266): reduced air pressure: 15.05.2019 16:00:00 - 21.05.2019 16:00:00 (CEST)
Date & Time tt [°C] td [°C] ff [km/h] ff [kn] dd ppp [hPa]
21.05.2019 16:00:00 - - - - - -
21.05.2019 15:00:00 18,4 15,0 4 2 NNW 1013,4
21.05.2019 14:00:00 18,9 13,7 4 2 SE 1012,8
21.05.2019 13:00:00 21,9 14,5 8 4 E 1012,3
21.05.2019 12:00:00 21,4 14,0 11 6 E 1012,1
21.05.2019 11:00:00 20,8 12,2 9 5 ESE 1011,7
21.05.2019 10:00:00 19,9 13,0 11 6 SSW 1011,5
21.05.2019 09:00:00 18,1 12,3 8 4 S 1011,5
21.05.2019 08:00:00 18,6 12,8 4 2 S 1011,1
21.05.2019 07:00:00 14,6 10,8 2 1 S 1010,9
21.05.2019 06:00:00 12,5 7,7 0 0 N 1010,5
21.05.2019 05:00:00 13,1 7,9 0 0 N 1010,6
21.05.2019 04:00:00 13,8 7,7 4 2 NNW 1010,7
21.05.2019 03:00:00 15,1 8,7 4 2 W 1010,9
21.05.2019 02:00:00 14,2 7,4 4 2 N 1011,0
21.05.2019 01:00:00 15,3 8,2 4 2 SE 1011,1
21.05.2019 00:00:00 15,6 8,5 5 3 SSW 1011,3
20.05.2019 23:00:00 15,6 8,5 2 1 SSW 1011,1
20.05.2019 22:00:00 15,7 8,1 2 1 W 1010,8
20.05.2019 21:00:00 16,6 9,0 8 4 SW 1010,1
20.05.2019 20:00:00 17,7 11,2 0 0 N 1010,0
20.05.2019 19:00:00 19,4 8,9 4 2 S 1010,1
20.05.2019 18:00:00 18,5 9,8 9 5 WSW 1010,0
20.05.2019 17:00:00 22,4 10,2 9 5 WNW 1009,6
20.05.2019 16:00:00 21,5 9,0 8 4 SW 1009,5
20.05.2019 15:00:00 21,1 11,4 5 3 WSW 1009,6
20.05.2019 14:00:00 19,2 7,9 9 5 SSW 1009,7
20.05.2019 13:00:00 20,3 10,1 8 4 WNW 1009,9
20.05.2019 12:00:00 20,8 10,2 9 5 NNE 1009,4
20.05.2019 11:00:00 21,2 10,6 4 2 W 1008,8
20.05.2019 10:00:00 20,6 11,7 4 2 NNE 1008,4
20.05.2019 09:00:00 19,1 11,6 2 1 SSW 1008,3
20.05.2019 08:00:00 17,3 10,1 5 3 NNW 1007,8
20.05.2019 07:00:00 15,1 11,5 4 2 W 1007,5
20.05.2019 06:00:00 12,9 8,1 4 2 W 1007,1
20.05.2019 05:00:00 12,2 7,7 5 3 W 1007,0
20.05.2019 04:00:00 13,7 8,3 4 2 W 1007,0
20.05.2019 03:00:00 13,2 8,4 4 2 WNW 1007,1
20.05.2019 02:00:00 13,2 9,2 2 1 WSW 1007,0
20.05.2019 01:00:00 13,7 9,3 4 2 SW 1007,1
20.05.2019 00:00:00 13,6 8,8 2 1 WNW 1006,9
19.05.2019 23:00:00 14,2 9,2 2 1 SSW 1006,6
19.05.2019 22:00:00 14,9 10,3 0 0 N 1006,6
19.05.2019 21:00:00 15,4 11,7 0 0 N 1005,8
19.05.2019 20:00:00 17,2 14,6 2 1 WNW 1005,6
19.05.2019 19:00:00 18,2 16,1 4 2 N 1004,9
19.05.2019 18:00:00 17,5 15,1 9 5 SSW 1004,5
19.05.2019 17:00:00 17,4 15,9 5 3 SE 1004,7
19.05.2019 16:00:00 17,0 15,8 2 1 SSW 1004,9
19.05.2019 15:00:00 19,2 14,8 15 8 S 1003,9
19.05.2019 14:00:00 19,6 15,6 21 11 SE 1003,5
19.05.2019 13:00:00 20,1 14,8 5 3 S 1003,7
19.05.2019 12:00:00 19,4 17,1 5 3 S 1003,9
19.05.2019 11:00:00 17,2 14,6 9 5 S 1004,0
19.05.2019 10:00:00 17,3 14,5 11 6 S 1003,9
19.05.2019 09:00:00 17,3 15,2 13 7 S 1004,1
19.05.2019 08:00:00 16,1 15,1 8 4 S 1004,1
19.05.2019 07:00:00 14,5 13,5 4 2 SSW 1004,3
19.05.2019 06:00:00 13,8 12,7 0 0 N 1004,5
19.05.2019 05:00:00 13,7 12,4 0 0 N 1004,6
19.05.2019 04:00:00 14,3 13,1 0 0 N 1005,0
19.05.2019 03:00:00 15,4 14,5 8 4 WSW 1005,3
19.05.2019 02:00:00 15,3 14,3 2 1 SW 1006,1
19.05.2019 01:00:00 16,0 15,0 4 2 SSW 1006,5
19.05.2019 00:00:00 16,0 15,0 4 2 SW 1006,8
18.05.2019 23:00:00 15,8 14,4 4 2 SSW 1007,4
18.05.2019 22:00:00 16,1 14,6 2 1 SW 1007,5
18.05.2019 21:00:00 16,9 15,2 4 2 S 1007,4
18.05.2019 20:00:00 17,5 15,6 5 3 S 1007,0
18.05.2019 19:00:00 18,1 16,4 8 4 SSW 1006,8
18.05.2019 18:00:00 18,4 16,5 18 10 SSE 1006,8
18.05.2019 17:00:00 18,6 17,0 16 9 S 1007,1
18.05.2019 16:00:00 17,9 16,9 24 13 S 1006,9
18.05.2019 15:00:00 17,3 16,3 11 6 S 1007,6
18.05.2019 14:00:00 17,2 15,7 11 6 SW 1007,9
18.05.2019 13:00:00 17,5 15,4 13 7 SSW 1007,1
18.05.2019 12:00:00 17,7 15,3 21 11 S 1007,4
18.05.2019 11:00:00 17,5 15,8 22 12 SSW 1007,0
18.05.2019 10:00:00 16,7 15,2 15 8 SSW 1007,4
18.05.2019 09:00:00 16,2 14,7 13 7 S 1007,8
18.05.2019 08:00:00 16,2 14,7 13 7 SSW 1007,8
18.05.2019 07:00:00 16,2 14,7 9 5 SW 1007,3
18.05.2019 06:00:00 16,0 14,3 9 5 SSW 1007,0
18.05.2019 05:00:00 16,0 14,3 13 7 SSW 1007,6
18.05.2019 04:00:00 - - - - - -
18.05.2019 03:00:00 16,0 13,8 11 6 SW 1007,9
18.05.2019 02:00:00 16,3 14,1 9 5 SW 1008,5
18.05.2019 01:00:00 16,7 14,6 11 6 SW 1008,8
18.05.2019 00:00:00 16,9 13,9 13 7 S 1009,0
17.05.2019 23:00:00 16,1 12,4 9 5 WSW 1009,4
17.05.2019 22:00:00 15,8 11,7 11 6 SW 1009,4
17.05.2019 21:00:00 16,1 12,6 9 5 WSW 1009,3
17.05.2019 20:00:00 17,0 13,3 13 7 SSE 1009,1
17.05.2019 19:00:00 17,5 13,1 15 8 S 1009,3
17.05.2019 18:00:00 17,8 12,8 13 7 S 1009,6
17.05.2019 17:00:00 18,7 13,2 15 8 SE 1009,9
17.05.2019 16:00:00 19,1 13,0 16 9 SE 1010,2
17.05.2019 15:00:00 19,5 12,9 16 9 SSE 1010,6
17.05.2019 14:00:00 19,2 13,3 16 9 SSW 1010,9
17.05.2019 13:00:00 19,1 13,2 16 9 SE 1011,1
17.05.2019 12:00:00 18,7 14,1 9 5 SSE 1011,5
17.05.2019 11:00:00 17,8 13,2 9 5 SE 1011,7
17.05.2019 10:00:00 17,4 13,6 5 3 ENE 1011,6
17.05.2019 09:00:00 16,1 12,0 5 3 NE 1011,6
17.05.2019 08:00:00 15,5 12,4 2 1 N 1011,3
17.05.2019 07:00:00 12,7 10,0 2 1 N 1011,0
17.05.2019 06:00:00 10,4 7,4 0 0 N 1010,8
17.05.2019 05:00:00 10,6 7,4 0 0 N 1010,8
17.05.2019 04:00:00 10,9 7,7 4 2 NW 1011,0
17.05.2019 03:00:00 11,2 8,2 5 3 NW 1011,4
17.05.2019 02:00:00 11,1 8,3 4 2 W 1011,6
17.05.2019 01:00:00 11,5 8,3 4 2 W 1011,8
17.05.2019 00:00:00 12,0 9,0 4 2 W 1012,1
16.05.2019 23:00:00 12,6 9,6 4 2 WNW 1012,3
16.05.2019 22:00:00 13,3 9,9 5 3 NW 1012,2
16.05.2019 21:00:00 13,9 10,1 5 3 W 1011,8
16.05.2019 20:00:00 15,1 10,7 9 5 NNW 1011,3
16.05.2019 19:00:00 15,9 10,8 15 8 N 1011,1
16.05.2019 18:00:00 16,6 11,9 18 10 N 1011,1
16.05.2019 17:00:00 16,8 12,5 18 10 NNE 1011,1
16.05.2019 16:00:00 17,1 11,3 21 11 NNE 1011,0
16.05.2019 15:00:00 17,2 11,6 21 11 NNE 1011,0
16.05.2019 14:00:00 16,8 11,0 24 13 NNE 1011,2
16.05.2019 13:00:00 16,8 11,9 22 12 NNE 1011,1
16.05.2019 12:00:00 16,7 12,6 22 12 N 1011,3
16.05.2019 11:00:00 16,3 13,0 18 10 NNE 1011,1
16.05.2019 10:00:00 15,2 13,3 9 5 NW 1011,1
16.05.2019 09:00:00 13,7 12,4 5 3 NNW 1011,2
16.05.2019 08:00:00 13,0 11,9 5 3 NW 1010,9
16.05.2019 07:00:00 12,2 10,9 5 3 WNW 1010,5
16.05.2019 06:00:00 11,7 10,4 8 4 WSW 1010,5
16.05.2019 05:00:00 11,2 9,9 8 4 NW 1010,6
16.05.2019 04:00:00 10,9 9,6 5 3 WNW 1010,7
16.05.2019 03:00:00 11,1 9,7 5 3 NNW 1011,1
16.05.2019 02:00:00 11,2 9,6 5 3 WNW 1011,7
16.05.2019 01:00:00 11,7 9,9 5 3 NNW 1012,1
16.05.2019 00:00:00 12,0 9,7 5 3 NW 1012,4
15.05.2019 23:00:00 12,3 9,3 4 2 WNW 1012,4
15.05.2019 22:00:00 12,7 9,1 4 2 NNW 1012,5
15.05.2019 21:00:00 13,0 9,0 2 1 NNW 1012,1
15.05.2019 20:00:00 13,5 8,9 2 1 N 1012,2
15.05.2019 19:00:00 13,8 8,8 5 3 NNW 1012,0
15.05.2019 18:00:00 13,9 8,9 11 6 NNE 1011,9
15.05.2019 17:00:00 14,1 8,7 11 6 N 1012,2
15.05.2019 16:00:00 14,3 8,9 13 7 N 1012,0

tt = temperature
td = dewpoint
ff = wind speed
dd = wind direction
ppp = reduced air pressure

Next stations